createdAt,value
2023-03-22T00:01:49.995Z,10.90
2023-03-22T00:04:35.704Z,10.89
2023-03-22T00:07:21.003Z,10.93
2023-03-22T00:10:07.091Z,10.88
2023-03-22T00:12:52.744Z,10.81
2023-03-22T00:15:38.126Z,10.72
2023-03-22T00:18:24.095Z,10.69
2023-03-22T00:21:15.503Z,10.71
2023-03-22T00:24:01.004Z,10.73
2023-03-22T00:26:47.572Z,10.74
2023-03-22T00:29:33.092Z,10.76
2023-03-22T00:32:18.449Z,10.76
2023-03-22T00:35:07.989Z,10.76
2023-03-22T00:37:53.541Z,10.80
2023-03-22T00:40:42.144Z,10.86
2023-03-22T00:43:27.790Z,10.91
2023-03-22T00:46:15.602Z,10.91
2023-03-22T00:49:00.942Z,10.82
2023-03-22T00:51:46.238Z,10.69
2023-03-22T00:54:31.622Z,10.62
2023-03-22T00:57:17.811Z,10.61
2023-03-22T01:00:14.265Z,10.60
2023-03-22T01:03:05.066Z,10.56
2023-03-22T01:05:56.677Z,10.47
2023-03-22T01:08:42.483Z,10.32
2023-03-22T01:11:28.572Z,10.18
2023-03-22T01:14:14.123Z,9.99
2023-03-22T01:17:00.125Z,9.86
2023-03-22T01:19:45.820Z,9.74
2023-03-22T01:22:31.391Z,9.47
2023-03-22T01:25:17.676Z,9.39
2023-03-22T01:28:03.247Z,9.26
2023-03-22T01:30:50.147Z,9.23
2023-03-22T01:33:35.522Z,9.10
2023-03-22T01:36:21.410Z,8.98
2023-03-22T01:39:06.946Z,8.84
2023-03-22T01:41:53.115Z,8.72
2023-03-22T01:44:39.040Z,8.65
2023-03-22T01:47:24.828Z,8.60
2023-03-22T01:50:10.515Z,8.56
2023-03-22T01:52:57.612Z,8.42
2023-03-22T01:55:52.244Z,8.31
2023-03-22T01:58:43.426Z,8.18
2023-03-22T02:01:32.423Z,8.13
2023-03-22T02:04:23.760Z,8.10
2023-03-22T02:07:15.733Z,7.95
2023-03-22T02:10:03.903Z,7.90
2023-03-22T02:13:24.556Z,7.80
2023-03-22T02:16:53.886Z,7.76
2023-03-22T02:20:11.205Z,7.67
2023-03-22T02:23:50.948Z,7.56
2023-03-22T02:26:52.194Z,7.51
2023-03-22T02:30:01.814Z,7.43
2023-03-22T02:33:18.306Z,7.28
2023-03-22T02:36:22.630Z,7.16
2023-03-22T02:39:36.281Z,7.08
2023-03-22T02:42:37.001Z,7.03
2023-03-22T02:45:32.187Z,6.96
2023-03-22T02:48:20.726Z,6.87
2023-03-22T02:51:15.519Z,6.85
2023-03-22T02:54:10.336Z,6.85
2023-03-22T02:57:10.144Z,6.80
2023-03-22T02:59:58.381Z,6.78
2023-03-22T03:02:49.678Z,6.81
2023-03-22T03:05:35.357Z,6.83
2023-03-22T03:08:22.414Z,6.75
2023-03-22T03:11:10.217Z,6.68
2023-03-22T03:13:55.615Z,6.70
2023-03-22T03:16:41.086Z,6.63
2023-03-22T03:19:46.445Z,6.56
2023-03-22T03:22:45.640Z,6.51
2023-03-22T03:25:43.611Z,6.45
2023-03-22T03:28:43.343Z,6.32
2023-03-22T03:31:43.072Z,6.29
2023-03-22T03:34:36.243Z,6.27
2023-03-22T03:37:29.967Z,6.16
2023-03-22T03:40:29.033Z,6.14
2023-03-22T03:43:17.795Z,6.11
2023-03-22T03:46:03.678Z,6.09
2023-03-22T03:48:51.735Z,6.03
2023-03-22T03:51:47.523Z,6.04
2023-03-22T03:54:34.276Z,5.99
2023-03-22T03:57:20.098Z,5.95
2023-03-22T04:00:06.687Z,5.89
2023-03-22T04:03:11.071Z,5.80
2023-03-22T04:06:17.113Z,5.80
2023-03-22T04:09:08.639Z,5.78
2023-03-22T04:11:59.514Z,5.76
2023-03-22T04:14:45.311Z,5.71
2023-03-22T04:17:40.074Z,5.73
2023-03-22T04:20:27.111Z,5.68
2023-03-22T04:23:12.718Z,5.63
2023-03-22T04:25:59.675Z,5.66
2023-03-22T04:28:56.920Z,5.68
2023-03-22T04:31:42.543Z,5.61
2023-03-22T04:34:51.400Z,5.60
2023-03-22T04:37:38.059Z,5.56
2023-03-22T04:40:36.693Z,5.59
2023-03-22T04:43:29.591Z,5.60
2023-03-22T04:46:21.370Z,5.56
2023-03-22T04:49:14.096Z,5.49
2023-03-22T04:52:00.975Z,5.51
2023-03-22T04:54:54.123Z,5.47
2023-03-22T04:57:39.412Z,5.48
2023-03-22T05:00:24.811Z,5.48
2023-03-22T05:03:11.788Z,5.42
2023-03-22T05:06:03.288Z,5.39
2023-03-22T05:09:00.097Z,5.44
2023-03-22T05:11:45.817Z,5.44
2023-03-22T05:14:56.118Z,5.47
2023-03-22T05:17:46.899Z,5.48
2023-03-22T05:20:33.673Z,5.47
2023-03-22T05:23:28.517Z,5.43
2023-03-22T05:26:16.263Z,5.34
2023-03-22T05:29:02.333Z,5.29
2023-03-22T05:32:07.784Z,5.25
2023-03-22T05:34:53.046Z,5.22
2023-03-22T05:37:51.688Z,5.26
2023-03-22T05:40:38.680Z,5.25
2023-03-22T05:43:24.180Z,5.28
2023-03-22T05:46:11.907Z,5.31
2023-03-22T05:49:11.712Z,5.29
2023-03-22T05:51:58.088Z,5.29
2023-03-22T05:54:53.303Z,5.27
2023-03-22T05:57:39.947Z,5.33
2023-03-22T06:00:27.274Z,5.28
2023-03-22T06:03:35.529Z,5.29
2023-03-22T06:06:43.758Z,5.22
2023-03-22T06:09:40.508Z,5.22
2023-03-22T06:12:30.435Z,5.25
2023-03-22T06:15:23.146Z,5.19
2023-03-22T06:18:26.535Z,5.18
2023-03-22T06:21:20.540Z,5.22
2023-03-22T06:24:06.292Z,5.29
2023-03-22T06:26:52.769Z,5.25
2023-03-22T06:29:38.948Z,5.24
2023-03-22T06:32:26.832Z,5.21
2023-03-22T06:35:15.345Z,5.27
2023-03-22T06:38:01.358Z,5.27
2023-03-22T06:40:46.767Z,5.31
2023-03-22T06:43:32.247Z,5.33
2023-03-22T06:46:30.273Z,5.33
2023-03-22T06:49:26.608Z,5.38
2023-03-22T06:52:12.760Z,5.41
2023-03-22T06:54:58.591Z,5.46
2023-03-22T06:57:43.996Z,5.43
2023-03-22T07:00:30.328Z,5.48
2023-03-22T07:03:15.520Z,5.51
2023-03-22T07:06:08.955Z,5.60
2023-03-22T07:08:57.717Z,5.66
2023-03-22T07:11:48.537Z,5.72
2023-03-22T07:14:34.654Z,5.74
2023-03-22T07:17:37.212Z,5.80
2023-03-22T07:20:23.011Z,5.88
2023-03-22T07:23:10.906Z,5.95
2023-03-22T07:26:04.815Z,5.98
2023-03-22T07:28:53.164Z,6.03
2023-03-22T07:31:45.845Z,6.07
2023-03-22T07:34:40.576Z,6.08
2023-03-22T07:37:33.405Z,6.17
2023-03-22T07:40:19.902Z,6.25
2023-03-22T07:43:06.887Z,6.42
2023-03-22T07:46:07.023Z,6.59
2023-03-22T07:49:19.033Z,6.67
2023-03-22T07:52:26.585Z,6.77
2023-03-22T07:55:14.735Z,6.80
2023-03-22T07:58:00.301Z,6.81
2023-03-22T08:00:45.827Z,6.79
2023-03-22T08:03:59.944Z,6.79
2023-03-22T08:07:04.486Z,6.86
2023-03-22T08:09:50.907Z,6.97
2023-03-22T08:12:36.636Z,7.06
2023-03-22T08:15:38.831Z,7.15
2023-03-22T08:18:26.187Z,7.20
2023-03-22T08:21:11.600Z,7.25
2023-03-22T08:23:57.428Z,7.29
2023-03-22T08:26:58.401Z,7.35
2023-03-22T08:29:51.734Z,7.40
2023-03-22T08:32:37.932Z,7.44
2023-03-22T08:35:23.660Z,7.51
2023-03-22T08:38:09.304Z,7.57
2023-03-22T08:41:03.560Z,7.61
2023-03-22T08:43:49.379Z,7.64
2023-03-22T08:46:35.376Z,7.70
2023-03-22T08:49:21.876Z,7.76
2023-03-22T08:52:22.107Z,7.87
2023-03-22T08:55:26.555Z,7.96
2023-03-22T08:58:30.470Z,8.04
2023-03-22T09:01:37.421Z,8.06
2023-03-22T09:04:25.011Z,8.07
2023-03-22T09:07:11.636Z,8.16
2023-03-22T09:09:57.779Z,8.31
2023-03-22T09:12:44.028Z,8.46
2023-03-22T09:15:29.237Z,8.60
2023-03-22T09:18:35.064Z,8.76
2023-03-22T09:21:26.459Z,8.93
2023-03-22T09:24:18.367Z,9.20
2023-03-22T09:27:10.003Z,9.45
2023-03-22T09:29:55.911Z,9.50
2023-03-22T09:32:42.240Z,9.37
2023-03-22T09:35:32.161Z,9.22
2023-03-22T09:38:25.190Z,9.11
2023-03-22T09:41:33.972Z,9.11
2023-03-22T09:44:39.305Z,9.04
2023-03-22T09:47:44.830Z,9.01
2023-03-22T09:50:33.257Z,8.98
2023-03-22T09:53:21.481Z,8.97
2023-03-22T09:56:18.007Z,8.95
2023-03-22T09:59:54.940Z,8.96
2023-03-22T10:03:10.876Z,9.00
2023-03-22T10:06:04.823Z,8.93
2023-03-22T10:08:59.370Z,8.89
2023-03-22T10:11:46.105Z,8.85
2023-03-22T10:14:42.734Z,8.87
2023-03-22T10:17:29.787Z,9.11
2023-03-22T10:20:22.336Z,9.49
2023-03-22T10:23:16.282Z,9.85
2023-03-22T10:26:05.071Z,10.16
2023-03-22T10:29:04.017Z,10.42
2023-03-22T10:31:50.265Z,10.59
2023-03-22T10:34:35.919Z,10.71
2023-03-22T10:37:27.029Z,10.81
2023-03-22T10:40:20.132Z,10.92
2023-03-22T10:43:26.288Z,10.76
2023-03-22T10:46:25.729Z,10.66
2023-03-22T10:49:22.708Z,10.58
2023-03-22T10:52:21.612Z,10.44
2023-03-22T10:55:15.976Z,10.53
2023-03-22T10:58:22.973Z,10.52
2023-03-22T11:01:11.633Z,10.60
2023-03-22T11:04:10.689Z,10.72
2023-03-22T11:06:56.539Z,10.76
2023-03-22T11:09:42.128Z,10.87
2023-03-22T11:12:27.445Z,10.86
2023-03-22T11:15:41.625Z,10.95
2023-03-22T11:18:31.787Z,11.04
2023-03-22T11:21:18.448Z,11.10
2023-03-22T11:24:07.661Z,11.01
2023-03-22T11:27:10.983Z,11.10
2023-03-22T11:30:34.161Z,11.22
2023-03-22T11:33:21.752Z,11.27
2023-03-22T11:36:19.066Z,11.32
2023-03-22T11:39:08.019Z,11.31
2023-03-22T11:41:57.684Z,11.26
2023-03-22T11:44:44.777Z,11.20
2023-03-22T11:47:36.650Z,11.06
2023-03-22T11:50:32.143Z,10.83
2023-03-22T11:53:28.119Z,10.84
2023-03-22T11:56:18.894Z,10.87
2023-03-22T11:59:09.257Z,10.85
2023-03-22T12:02:20.987Z,10.63
2023-03-22T12:05:12.790Z,10.73
2023-03-22T12:08:18.646Z,10.94
2023-03-22T12:11:07.729Z,11.13
2023-03-22T12:14:00.316Z,11.19
2023-03-22T12:16:57.959Z,11.23
2023-03-22T12:20:12.891Z,11.42
2023-03-22T12:22:58.454Z,11.55
2023-03-22T12:25:55.272Z,11.47
2023-03-22T12:29:00.879Z,11.61
2023-03-22T12:32:03.493Z,11.91
2023-03-22T12:34:55.054Z,12.06
2023-03-22T12:37:52.384Z,12.22
2023-03-22T12:40:41.526Z,12.59
2023-03-22T12:43:53.356Z,12.84
2023-03-22T12:46:50.470Z,13.03
2023-03-22T12:49:54.029Z,13.17
2023-03-22T12:52:47.374Z,13.46
2023-03-22T12:55:39.026Z,13.38
2023-03-22T12:58:26.586Z,13.38
2023-03-22T13:01:34.137Z,13.21
2023-03-22T13:04:25.973Z,13.31
2023-03-22T13:07:30.652Z,13.17
2023-03-22T13:10:34.740Z,13.18
2023-03-22T13:13:23.780Z,13.20
2023-03-22T13:16:09.379Z,13.18
2023-03-22T13:19:00.684Z,13.32
2023-03-22T13:21:48.916Z,13.37
2023-03-22T13:24:34.978Z,13.71
2023-03-22T13:27:20.416Z,13.92
2023-03-22T13:30:34.774Z,14.01
2023-03-22T13:33:24.989Z,14.15
2023-03-22T13:36:25.096Z,14.15
2023-03-22T13:39:12.578Z,14.14
2023-03-22T13:42:17.063Z,14.31
2023-03-22T13:45:04.022Z,14.16
2023-03-22T13:48:04.916Z,14.28
2023-03-22T13:50:50.330Z,14.25
2023-03-22T13:53:36.828Z,14.22
2023-03-22T13:57:00.997Z,14.29
2023-03-22T14:00:12.139Z,14.35
2023-03-22T14:03:13.557Z,14.35
2023-03-22T14:06:28.154Z,14.58
2023-03-22T14:09:23.497Z,14.73
2023-03-22T14:12:19.190Z,14.69
2023-03-22T14:15:07.428Z,14.27
2023-03-22T14:18:00.248Z,14.35
2023-03-22T14:20:50.971Z,13.91
